sensor_id;sensor_type;location;lat;lon;timestamp;temperature;humidity
52621;DHT22;38515;53.160;6.990;2023-06-22T00:01:56;16.80;99.90
52621;DHT22;38515;53.160;6.990;2023-06-22T00:04:22;16.90;99.90
52621;DHT22;38515;53.160;6.990;2023-06-22T00:06:48;16.80;99.90
52621;DHT22;38515;53.160;6.990;2023-06-22T00:09:14;16.80;99.90
52621;DHT22;38515;53.160;6.990;2023-06-22T00:11:40;16.80;99.90
52621;DHT22;38515;53.160;6.990;2023-06-22T00:14:06;16.80;99.90
52621;DHT22;38515;53.160;6.990;2023-06-22T00:16:32;16.80;99.90
52621;DHT22;38515;53.160;6.990;2023-06-22T00:18:59;16.70;99.90
52621;DHT22;38515;53.160;6.990;2023-06-22T00:21:29;16.70;99.90
52621;DHT22;38515;53.160;6.990;2023-06-22T00:23:56;16.70;99.90
52621;DHT22;38515;53.160;6.990;2023-06-22T00:26:23;16.60;99.90
52621;DHT22;38515;53.160;6.990;2023-06-22T00:28:49;16.60;99.90
52621;DHT22;38515;53.160;6.990;2023-06-22T00:31:14;16.60;99.90
52621;DHT22;38515;53.160;6.990;2023-06-22T00:33:40;16.60;99.90
52621;DHT22;38515;53.160;6.990;2023-06-22T00:36:06;16.60;99.90
52621;DHT22;38515;53.160;6.990;2023-06-22T00:38:38;16.50;99.90
52621;DHT22;38515;53.160;6.990;2023-06-22T00:41:06;16.50;99.90
52621;DHT22;38515;53.160;6.990;2023-06-22T00:43:31;16.50;99.90
52621;DHT22;38515;53.160;6.990;2023-06-22T00:45:57;16.40;99.90
52621;DHT22;38515;53.160;6.990;2023-06-22T00:48:24;16.40;99.90
52621;DHT22;38515;53.160;6.990;2023-06-22T00:50:49;16.40;99.90
52621;DHT22;38515;53.160;6.990;2023-06-22T00:53:16;16.30;99.90
52621;DHT22;38515;53.160;6.990;2023-06-22T00:55:44;16.30;99.90
52621;DHT22;38515;53.160;6.990;2023-06-22T00:58:11;16.30;99.90
52621;DHT22;38515;53.160;6.990;2023-06-22T01:00:38;16.30;99.90
52621;DHT22;38515;53.160;6.990;2023-06-22T01:03:04;16.30;99.90
52621;DHT22;38515;53.160;6.990;2023-06-22T01:05:35;16.30;99.90
52621;DHT22;38515;53.160;6.990;2023-06-22T01:10:53;16.20;99.90
52621;DHT22;38515;53.160;6.990;2023-06-22T01:16:29;16.20;99.90
52621;DHT22;38515;53.160;6.990;2023-06-22T01:18:57;16.20;99.90
52621;DHT22;38515;53.160;6.990;2023-06-22T01:21:28;16.10;99.90
52621;DHT22;38515;53.160;6.990;2023-06-22T01:24:15;16.10;99.90
52621;DHT22;38515;53.160;6.990;2023-06-22T01:26:43;16.10;99.90
52621;DHT22;38515;53.160;6.990;2023-06-22T01:29:12;16.00;99.90
52621;DHT22;38515;53.160;6.990;2023-06-22T01:31:40;15.90;99.90
52621;DHT22;38515;53.160;6.990;2023-06-22T01:34:08;16.00;99.90
52621;DHT22;38515;53.160;6.990;2023-06-22T01:36:34;15.90;99.90
52621;DHT22;38515;53.160;6.990;2023-06-22T01:39:02;15.90;99.90
52621;DHT22;38515;53.160;6.990;2023-06-22T01:41:33;16.00;99.90
52621;DHT22;38515;53.160;6.990;2023-06-22T01:44:00;16.00;99.90
52621;DHT22;38515;53.160;6.990;2023-06-22T01:46:26;15.80;99.90
52621;DHT22;38515;53.160;6.990;2023-06-22T01:48:56;16.00;99.90
52621;DHT22;38515;53.160;6.990;2023-06-22T01:51:22;16.10;99.90
52621;DHT22;38515;53.160;6.990;2023-06-22T01:53:48;16.10;99.90
52621;DHT22;38515;53.160;6.990;2023-06-22T01:56:17;16.20;99.90
52621;DHT22;38515;53.160;6.990;2023-06-22T01:59:12;16.20;99.90
52621;DHT22;38515;53.160;6.990;2023-06-22T02:01:43;16.20;99.90
52621;DHT22;38515;53.160;6.990;2023-06-22T02:04:18;16.20;99.90
52621;DHT22;38515;53.160;6.990;2023-06-22T02:06:47;16.20;99.90
52621;DHT22;38515;53.160;6.990;2023-06-22T02:09:19;16.30;99.90
52621;DHT22;38515;53.160;6.990;2023-06-22T02:11:46;16.30;99.90
52621;DHT22;38515;53.160;6.990;2023-06-22T02:14:14;16.30;99.90
52621;DHT22;38515;53.160;6.990;2023-06-22T02:16:41;16.30;99.90
52621;DHT22;38515;53.160;6.990;2023-06-22T02:19:07;16.30;99.90
52621;DHT22;38515;53.160;6.990;2023-06-22T02:21:34;16.30;99.90
52621;DHT22;38515;53.160;6.990;2023-06-22T02:24:00;16.30;99.90
52621;DHT22;38515;53.160;6.990;2023-06-22T02:26:26;16.30;99.90
52621;DHT22;38515;53.160;6.990;2023-06-22T02:28:53;16.30;99.90
52621;DHT22;38515;53.160;6.990;2023-06-22T02:31:19;16.30;99.90
52621;DHT22;38515;53.160;6.990;2023-06-22T02:33:46;16.30;99.90
52621;DHT22;38515;53.160;6.990;2023-06-22T02:36:12;16.20;99.90
52621;DHT22;38515;53.160;6.990;2023-06-22T02:38:41;16.20;99.90
52621;DHT22;38515;53.160;6.990;2023-06-22T02:41:14;16.10;99.90
52621;DHT22;38515;53.160;6.990;2023-06-22T02:43:44;16.00;99.90
52621;DHT22;38515;53.160;6.990;2023-06-22T02:46:11;16.00;99.90
52621;DHT22;38515;53.160;6.990;2023-06-22T02:48:41;16.00;99.90
52621;DHT22;38515;53.160;6.990;2023-06-22T02:51:07;16.00;99.90
52621;DHT22;38515;53.160;6.990;2023-06-22T02:53:36;16.00;99.90
52621;DHT22;38515;53.160;6.990;2023-06-22T02:56:02;16.00;99.90
52621;DHT22;38515;53.160;6.990;2023-06-22T02:58:32;15.90;99.90
52621;DHT22;38515;53.160;6.990;2023-06-22T03:01:05;16.00;99.90
52621;DHT22;38515;53.160;6.990;2023-06-22T03:03:31;16.00;99.90
52621;DHT22;38515;53.160;6.990;2023-06-22T03:05:57;15.90;99.90
52621;DHT22;38515;53.160;6.990;2023-06-22T03:08:23;15.90;99.90
52621;DHT22;38515;53.160;6.990;2023-06-22T03:10:48;16.00;99.90
52621;DHT22;38515;53.160;6.990;2023-06-22T03:13:14;15.90;99.90
52621;DHT22;38515;53.160;6.990;2023-06-22T03:15:40;16.00;99.90
52621;DHT22;38515;53.160;6.990;2023-06-22T03:18:06;15.90;99.90
52621;DHT22;38515;53.160;6.990;2023-06-22T03:20:32;15.90;99.90
52621;DHT22;38515;53.160;6.990;2023-06-22T03:22:59;15.90;99.90
52621;DHT22;38515;53.160;6.990;2023-06-22T03:25:25;15.90;99.90
52621;DHT22;38515;53.160;6.990;2023-06-22T03:27:51;15.90;99.90
52621;DHT22;38515;53.160;6.990;2023-06-22T03:30:17;15.90;99.90
52621;DHT22;38515;53.160;6.990;2023-06-22T03:32:43;15.90;99.90
52621;DHT22;38515;53.160;6.990;2023-06-22T03:35:09;15.90;99.90
52621;DHT22;38515;53.160;6.990;2023-06-22T03:37:36;15.90;99.90
52621;DHT22;38515;53.160;6.990;2023-06-22T03:40:02;15.90;99.90
52621;DHT22;38515;53.160;6.990;2023-06-22T03:42:33;15.90;99.90
52621;DHT22;38515;53.160;6.990;2023-06-22T03:44:59;16.00;99.90
52621;DHT22;38515;53.160;6.990;2023-06-22T03:47:26;16.00;99.90
52621;DHT22;38515;53.160;6.990;2023-06-22T03:49:52;16.00;99.90
52621;DHT22;38515;53.160;6.990;2023-06-22T03:52:21;16.00;99.90
52621;DHT22;38515;53.160;6.990;2023-06-22T03:54:48;16.00;99.90
52621;DHT22;38515;53.160;6.990;2023-06-22T03:57:14;16.10;99.90
52621;DHT22;38515;53.160;6.990;2023-06-22T03:59:39;16.00;99.90
52621;DHT22;38515;53.160;6.990;2023-06-22T04:02:05;16.10;99.90
52621;DHT22;38515;53.160;6.990;2023-06-22T04:04:31;16.10;99.90
52621;DHT22;38515;53.160;6.990;2023-06-22T04:06:57;16.10;99.90
52621;DHT22;38515;53.160;6.990;2023-06-22T04:09:23;16.10;99.90
52621;DHT22;38515;53.160;6.990;2023-06-22T04:11:49;16.10;99.90
52621;DHT22;38515;53.160;6.990;2023-06-22T04:14:15;16.20;99.90
52621;DHT22;38515;53.160;6.990;2023-06-22T04:16:41;16.30;99.90
52621;DHT22;38515;53.160;6.990;2023-06-22T04:19:07;16.30;99.90
52621;DHT22;38515;53.160;6.990;2023-06-22T04:21:32;16.20;99.90
52621;DHT22;38515;53.160;6.990;2023-06-22T04:23:58;16.30;99.90
52621;DHT22;38515;53.160;6.990;2023-06-22T04:26:24;16.30;99.90
52621;DHT22;38515;53.160;6.990;2023-06-22T04:28:50;16.40;99.90
52621;DHT22;38515;53.160;6.990;2023-06-22T04:31:17;16.40;99.90
52621;DHT22;38515;53.160;6.990;2023-06-22T04:33:46;16.50;99.90
52621;DHT22;38515;53.160;6.990;2023-06-22T04:36:12;16.60;99.90
52621;DHT22;38515;53.160;6.990;2023-06-22T04:38:39;16.60;99.90
52621;DHT22;38515;53.160;6.990;2023-06-22T04:41:05;16.60;99.90
52621;DHT22;38515;53.160;6.990;2023-06-22T04:43:34;16.70;99.90
52621;DHT22;38515;53.160;6.990;2023-06-22T04:45:59;16.80;99.90
52621;DHT22;38515;53.160;6.990;2023-06-22T04:48:31;16.80;99.90
52621;DHT22;38515;53.160;6.990;2023-06-22T04:51:01;16.90;99.90
52621;DHT22;38515;53.160;6.990;2023-06-22T04:53:32;17.00;99.90
52621;DHT22;38515;53.160;6.990;2023-06-22T04:55:58;17.10;99.90
52621;DHT22;38515;53.160;6.990;2023-06-22T04:58:24;17.10;99.90
52621;DHT22;38515;53.160;6.990;2023-06-22T05:00:54;17.20;99.90
52621;DHT22;38515;53.160;6.990;2023-06-22T05:03:22;17.20;99.90
52621;DHT22;38515;53.160;6.990;2023-06-22T05:05:52;17.30;99.90
52621;DHT22;38515;53.160;6.990;2023-06-22T05:08:18;17.30;99.90
52621;DHT22;38515;53.160;6.990;2023-06-22T05:10:44;17.50;99.90
52621;DHT22;38515;53.160;6.990;2023-06-22T05:13:10;17.50;99.90
52621;DHT22;38515;53.160;6.990;2023-06-22T05:15:36;17.60;99.90
52621;DHT22;38515;53.160;6.990;2023-06-22T05:18:06;17.70;99.90
52621;DHT22;38515;53.160;6.990;2023-06-22T05:20:32;17.90;99.90
52621;DHT22;38515;53.160;6.990;2023-06-22T05:22:59;18.00;99.90
52621;DHT22;38515;53.160;6.990;2023-06-22T05:25:25;18.10;99.90
52621;DHT22;38515;53.160;6.990;2023-06-22T05:27:52;18.20;99.90
52621;DHT22;38515;53.160;6.990;2023-06-22T05:30:18;18.30;99.90
52621;DHT22;38515;53.160;6.990;2023-06-22T05:32:44;18.40;99.90
52621;DHT22;38515;53.160;6.990;2023-06-22T05:35:10;18.50;99.90
52621;DHT22;38515;53.160;6.990;2023-06-22T05:37:38;18.60;99.90
52621;DHT22;38515;53.160;6.990;2023-06-22T05:40:05;18.70;99.90
52621;DHT22;38515;53.160;6.990;2023-06-22T05:42:33;18.80;99.90
52621;DHT22;38515;53.160;6.990;2023-06-22T05:44:59;19.00;99.90
52621;DHT22;38515;53.160;6.990;2023-06-22T05:47:25;19.10;99.90
52621;DHT22;38515;53.160;6.990;2023-06-22T05:49:51;19.30;99.90
52621;DHT22;38515;53.160;6.990;2023-06-22T05:52:16;19.60;99.90
52621;DHT22;38515;53.160;6.990;2023-06-22T05:54:42;19.70;99.90
52621;DHT22;38515;53.160;6.990;2023-06-22T05:57:08;19.90;99.90
52621;DHT22;38515;53.160;6.990;2023-06-22T05:59:34;20.10;99.90
52621;DHT22;38515;53.160;6.990;2023-06-22T06:02:00;20.30;99.90
52621;DHT22;38515;53.160;6.990;2023-06-22T06:04:26;20.50;99.90
52621;DHT22;38515;53.160;6.990;2023-06-22T06:06:52;20.80;99.90
52621;DHT22;38515;53.160;6.990;2023-06-22T06:09:18;21.10;99.90
52621;DHT22;38515;53.160;6.990;2023-06-22T06:11:44;21.30;99.90
52621;DHT22;38515;53.160;6.990;2023-06-22T06:14:10;21.60;99.90
52621;DHT22;38515;53.160;6.990;2023-06-22T06:16:36;21.90;99.90
52621;DHT22;38515;53.160;6.990;2023-06-22T06:19:02;21.90;99.90
52621;DHT22;38515;53.160;6.990;2023-06-22T06:21:28;22.10;99.90
52621;DHT22;38515;53.160;6.990;2023-06-22T06:23:54;22.10;99.90
52621;DHT22;38515;53.160;6.990;2023-06-22T06:26:20;22.00;99.90
52621;DHT22;38515;53.160;6.990;2023-06-22T06:28:54;21.80;99.90
52621;DHT22;38515;53.160;6.990;2023-06-22T06:31:20;21.60;99.90
52621;DHT22;38515;53.160;6.990;2023-06-22T06:33:46;21.50;99.90
52621;DHT22;38515;53.160;6.990;2023-06-22T06:36:12;21.40;99.90
52621;DHT22;38515;53.160;6.990;2023-06-22T06:38:38;21.40;99.90
52621;DHT22;38515;53.160;6.990;2023-06-22T06:41:04;21.40;99.90
52621;DHT22;38515;53.160;6.990;2023-06-22T06:43:30;21.40;99.90
52621;DHT22;38515;53.160;6.990;2023-06-22T06:45:56;21.50;99.90
52621;DHT22;38515;53.160;6.990;2023-06-22T06:48:22;21.50;99.90
52621;DHT22;38515;53.160;6.990;2023-06-22T06:50:48;21.50;99.90
52621;DHT22;38515;53.160;6.990;2023-06-22T06:53:14;21.60;99.90
52621;DHT22;38515;53.160;6.990;2023-06-22T06:55:40;21.70;99.90
52621;DHT22;38515;53.160;6.990;2023-06-22T06:58:06;21.80;99.90
52621;DHT22;38515;53.160;6.990;2023-06-22T07:00:33;22.00;99.90
52621;DHT22;38515;53.160;6.990;2023-06-22T07:03:01;22.20;99.90
52621;DHT22;38515;53.160;6.990;2023-06-22T07:05:27;22.40;99.90
52621;DHT22;38515;53.160;6.990;2023-06-22T07:07:53;22.50;99.90
52621;DHT22;38515;53.160;6.990;2023-06-22T07:10:19;22.50;99.90
52621;DHT22;38515;53.160;6.990;2023-06-22T07:12:45;22.50;99.90
52621;DHT22;38515;53.160;6.990;2023-06-22T07:15:11;22.50;99.90
52621;DHT22;38515;53.160;6.990;2023-06-22T07:17:40;22.60;99.90
52621;DHT22;38515;53.160;6.990;2023-06-22T07:20:07;22.60;99.90
52621;DHT22;38515;53.160;6.990;2023-06-22T07:22:42;22.60;99.90
52621;DHT22;38515;53.160;6.990;2023-06-22T07:25:09;22.60;99.90
52621;DHT22;38515;53.160;6.990;2023-06-22T07:27:39;22.40;99.90
52621;DHT22;38515;53.160;6.990;2023-06-22T07:30:09;22.40;99.90
52621;DHT22;38515;53.160;6.990;2023-06-22T07:32:35;22.50;99.90
52621;DHT22;38515;53.160;6.990;2023-06-22T07:35:02;22.60;99.90
52621;DHT22;38515;53.160;6.990;2023-06-22T07:37:28;22.70;99.90
52621;DHT22;38515;53.160;6.990;2023-06-22T07:39:55;22.70;99.90
52621;DHT22;38515;53.160;6.990;2023-06-22T07:42:25;22.70;99.90
52621;DHT22;38515;53.160;6.990;2023-06-22T07:44:51;22.70;99.90
52621;DHT22;38515;53.160;6.990;2023-06-22T07:47:17;22.80;99.90
52621;DHT22;38515;53.160;6.990;2023-06-22T07:49:46;22.80;99.90
52621;DHT22;38515;53.160;6.990;2023-06-22T07:52:12;22.90;99.90
52621;DHT22;38515;53.160;6.990;2023-06-22T07:54:38;22.90;99.90
52621;DHT22;38515;53.160;6.990;2023-06-22T07:57:04;23.00;99.90
52621;DHT22;38515;53.160;6.990;2023-06-22T07:59:30;23.00;99.90
52621;DHT22;38515;53.160;6.990;2023-06-22T08:01:56;23.10;99.90
52621;DHT22;38515;53.160;6.990;2023-06-22T08:04:22;23.10;99.90
52621;DHT22;38515;53.160;6.990;2023-06-22T08:06:48;23.10;99.90
52621;DHT22;38515;53.160;6.990;2023-06-22T08:09:14;23.20;99.90
52621;DHT22;38515;53.160;6.990;2023-06-22T08:11:41;23.30;99.90
52621;DHT22;38515;53.160;6.990;2023-06-22T08:14:06;23.40;99.90
52621;DHT22;38515;53.160;6.990;2023-06-22T08:16:32;23.40;99.90
52621;DHT22;38515;53.160;6.990;2023-06-22T08:18:58;23.30;99.90
52621;DHT22;38515;53.160;6.990;2023-06-22T08:21:24;23.40;99.90
52621;DHT22;38515;53.160;6.990;2023-06-22T08:23:50;23.50;99.90
52621;DHT22;38515;53.160;6.990;2023-06-22T08:26:16;23.50;99.90
52621;DHT22;38515;53.160;6.990;2023-06-22T08:28:42;23.60;99.90
52621;DHT22;38515;53.160;6.990;2023-06-22T08:31:07;23.70;99.90
52621;DHT22;38515;53.160;6.990;2023-06-22T08:33:34;23.70;99.90
52621;DHT22;38515;53.160;6.990;2023-06-22T08:36:00;23.80;99.90
52621;DHT22;38515;53.160;6.990;2023-06-22T08:38:26;23.80;99.90
52621;DHT22;38515;53.160;6.990;2023-06-22T08:40:51;23.90;99.90
52621;DHT22;38515;53.160;6.990;2023-06-22T08:43:18;24.00;99.90
52621;DHT22;38515;53.160;6.990;2023-06-22T08:45:44;24.10;99.90
52621;DHT22;38515;53.160;6.990;2023-06-22T08:48:10;24.30;99.90
52621;DHT22;38515;53.160;6.990;2023-06-22T08:50:36;24.30;99.90
52621;DHT22;38515;53.160;6.990;2023-06-22T08:53:02;24.30;99.90
52621;DHT22;38515;53.160;6.990;2023-06-22T08:55:28;24.20;99.90
52621;DHT22;38515;53.160;6.990;2023-06-22T08:57:53;24.30;99.90
52621;DHT22;38515;53.160;6.990;2023-06-22T09:00:20;24.20;99.90
52621;DHT22;38515;53.160;6.990;2023-06-22T09:02:47;24.20;99.90
52621;DHT22;38515;53.160;6.990;2023-06-22T09:05:14;24.20;99.90
52621;DHT22;38515;53.160;6.990;2023-06-22T09:07:43;24.30;99.90
52621;DHT22;38515;53.160;6.990;2023-06-22T09:10:09;24.40;99.90
52621;DHT22;38515;53.160;6.990;2023-06-22T09:12:35;24.40;99.90
52621;DHT22;38515;53.160;6.990;2023-06-22T09:15:03;24.40;99.90
52621;DHT22;38515;53.160;6.990;2023-06-22T09:17:29;24.50;99.90
52621;DHT22;38515;53.160;6.990;2023-06-22T09:19:55;24.50;99.90
52621;DHT22;38515;53.160;6.990;2023-06-22T09:22:21;24.60;99.90
52621;DHT22;38515;53.160;6.990;2023-06-22T09:24:47;24.60;99.90
52621;DHT22;38515;53.160;6.990;2023-06-22T09:27:13;24.60;99.90
52621;DHT22;38515;53.160;6.990;2023-06-22T09:29:39;24.60;99.90
52621;DHT22;38515;53.160;6.990;2023-06-22T09:32:05;24.70;99.90
52621;DHT22;38515;53.160;6.990;2023-06-22T09:34:32;24.80;99.90
52621;DHT22;38515;53.160;6.990;2023-06-22T09:36:58;24.90;99.90
52621;DHT22;38515;53.160;6.990;2023-06-22T09:39:26;24.90;99.90
52621;DHT22;38515;53.160;6.990;2023-06-22T09:41:52;25.00;99.90
52621;DHT22;38515;53.160;6.990;2023-06-22T09:44:19;25.00;99.90
52621;DHT22;38515;53.160;6.990;2023-06-22T09:46:45;25.00;99.90
52621;DHT22;38515;53.160;6.990;2023-06-22T09:49:11;24.90;99.90
52621;DHT22;38515;53.160;6.990;2023-06-22T09:51:37;24.90;99.90
52621;DHT22;38515;53.160;6.990;2023-06-22T09:54:03;24.90;99.90
52621;DHT22;38515;53.160;6.990;2023-06-22T09:56:29;24.90;99.90
52621;DHT22;38515;53.160;6.990;2023-06-22T09:58:56;25.00;99.90
52621;DHT22;38515;53.160;6.990;2023-06-22T10:01:21;25.00;99.90
52621;DHT22;38515;53.160;6.990;2023-06-22T10:03:48;25.10;99.90
52621;DHT22;38515;53.160;6.990;2023-06-22T10:06:14;25.00;99.90
52621;DHT22;38515;53.160;6.990;2023-06-22T10:08:40;25.00;99.90
52621;DHT22;38515;53.160;6.990;2023-06-22T10:11:06;25.20;99.90
52621;DHT22;38515;53.160;6.990;2023-06-22T10:13:32;25.20;99.90
52621;DHT22;38515;53.160;6.990;2023-06-22T10:15:58;25.20;99.90
52621;DHT22;38515;53.160;6.990;2023-06-22T10:18:24;25.30;99.90
52621;DHT22;38515;53.160;6.990;2023-06-22T10:20:51;25.30;99.90
52621;DHT22;38515;53.160;6.990;2023-06-22T10:23:18;25.20;99.90
52621;DHT22;38515;53.160;6.990;2023-06-22T10:25:44;25.30;99.90
52621;DHT22;38515;53.160;6.990;2023-06-22T10:28:10;25.30;99.90
52621;DHT22;38515;53.160;6.990;2023-06-22T10:30:36;25.30;99.90
52621;DHT22;38515;53.160;6.990;2023-06-22T10:33:02;25.20;99.90
52621;DHT22;38515;53.160;6.990;2023-06-22T10:35:28;25.20;99.90
52621;DHT22;38515;53.160;6.990;2023-06-22T10:37:55;25.30;99.90
52621;DHT22;38515;53.160;6.990;2023-06-22T10:40:21;25.30;99.90
52621;DHT22;38515;53.160;6.990;2023-06-22T10:42:47;25.40;99.90
52621;DHT22;38515;53.160;6.990;2023-06-22T10:45:15;25.40;99.90
52621;DHT22;38515;53.160;6.990;2023-06-22T10:47:41;25.40;99.90
52621;DHT22;38515;53.160;6.990;2023-06-22T10:50:08;25.30;99.90
52621;DHT22;38515;53.160;6.990;2023-06-22T10:52:34;25.40;99.90
52621;DHT22;38515;53.160;6.990;2023-06-22T10:55:00;25.40;99.90
52621;DHT22;38515;53.160;6.990;2023-06-22T10:57:26;25.30;99.90
52621;DHT22;38515;53.160;6.990;2023-06-22T10:59:51;25.30;99.90
52621;DHT22;38515;53.160;6.990;2023-06-22T11:02:17;25.40;99.90
52621;DHT22;38515;53.160;6.990;2023-06-22T11:04:43;25.50;99.90
52621;DHT22;38515;53.160;6.990;2023-06-22T11:07:12;25.60;99.90
52621;DHT22;38515;53.160;6.990;2023-06-22T11:09:38;25.60;99.90
52621;DHT22;38515;53.160;6.990;2023-06-22T11:12:05;25.70;99.90
52621;DHT22;38515;53.160;6.990;2023-06-22T11:14:31;25.70;99.90
52621;DHT22;38515;53.160;6.990;2023-06-22T11:16:59;25.70;99.90
52621;DHT22;38515;53.160;6.990;2023-06-22T11:19:25;25.70;99.90
52621;DHT22;38515;53.160;6.990;2023-06-22T11:21:51;25.80;99.90
52621;DHT22;38515;53.160;6.990;2023-06-22T11:24:17;25.80;99.90
52621;DHT22;38515;53.160;6.990;2023-06-22T11:26:43;25.60;99.90
52621;DHT22;38515;53.160;6.990;2023-06-22T11:29:09;25.60;99.90
52621;DHT22;38515;53.160;6.990;2023-06-22T11:31:36;25.60;99.90
52621;DHT22;38515;53.160;6.990;2023-06-22T11:34:02;25.80;99.90
52621;DHT22;38515;53.160;6.990;2023-06-22T11:36:29;25.70;99.90
52621;DHT22;38515;53.160;6.990;2023-06-22T11:38:59;25.60;99.90
52621;DHT22;38515;53.160;6.990;2023-06-22T11:41:25;25.50;99.90
52621;DHT22;38515;53.160;6.990;2023-06-22T11:43:50;25.30;99.90
52621;DHT22;38515;53.160;6.990;2023-06-22T11:46:17;25.20;99.90
52621;DHT22;38515;53.160;6.990;2023-06-22T11:48:42;25.10;99.90
52621;DHT22;38515;53.160;6.990;2023-06-22T11:51:08;25.00;99.90
52621;DHT22;38515;53.160;6.990;2023-06-22T11:53:34;25.10;99.90
52621;DHT22;38515;53.160;6.990;2023-06-22T11:56:01;25.10;99.90
52621;DHT22;38515;53.160;6.990;2023-06-22T11:58:27;25.20;99.90
52621;DHT22;38515;53.160;6.990;2023-06-22T12:00:54;25.30;99.90
52621;DHT22;38515;53.160;6.990;2023-06-22T12:03:20;25.40;99.90
52621;DHT22;38515;53.160;6.990;2023-06-22T12:05:50;25.50;99.90
52621;DHT22;38515;53.160;6.990;2023-06-22T12:08:19;25.40;99.90
52621;DHT22;38515;53.160;6.990;2023-06-22T12:10:45;25.50;99.90
52621;DHT22;38515;53.160;6.990;2023-06-22T12:13:11;25.40;99.90
52621;DHT22;38515;53.160;6.990;2023-06-22T12:15:37;25.30;99.90
52621;DHT22;38515;53.160;6.990;2023-06-22T12:18:03;25.30;99.90
52621;DHT22;38515;53.160;6.990;2023-06-22T12:20:29;25.30;99.90
52621;DHT22;38515;53.160;6.990;2023-06-22T12:22:55;25.30;99.90
52621;DHT22;38515;53.160;6.990;2023-06-22T12:25:23;25.20;99.90
52621;DHT22;38515;53.160;6.990;2023-06-22T12:27:49;25.20;99.90
52621;DHT22;38515;53.160;6.990;2023-06-22T12:30:16;25.30;99.90
52621;DHT22;38515;53.160;6.990;2023-06-22T12:32:42;25.40;99.90
52621;DHT22;38515;53.160;6.990;2023-06-22T12:35:08;25.40;99.90
52621;DHT22;38515;53.160;6.990;2023-06-22T12:37:41;25.30;99.90
52621;DHT22;38515;53.160;6.990;2023-06-22T12:40:08;25.30;99.90
52621;DHT22;38515;53.160;6.990;2023-06-22T12:42:34;25.40;99.90
52621;DHT22;38515;53.160;6.990;2023-06-22T12:45:00;25.30;99.90
52621;DHT22;38515;53.160;6.990;2023-06-22T12:47:26;25.30;99.90
52621;DHT22;38515;53.160;6.990;2023-06-22T12:49:52;25.40;99.90
52621;DHT22;38515;53.160;6.990;2023-06-22T12:52:18;25.40;99.90
52621;DHT22;38515;53.160;6.990;2023-06-22T12:54:44;25.30;99.90
52621;DHT22;38515;53.160;6.990;2023-06-22T12:57:10;25.30;99.90
52621;DHT22;38515;53.160;6.990;2023-06-22T12:59:36;25.30;99.90
52621;DHT22;38515;53.160;6.990;2023-06-22T13:02:02;25.30;99.90
52621;DHT22;38515;53.160;6.990;2023-06-22T13:04:27;25.30;99.90
52621;DHT22;38515;53.160;6.990;2023-06-22T13:06:53;25.20;99.90
52621;DHT22;38515;53.160;6.990;2023-06-22T13:09:20;25.20;99.90
52621;DHT22;38515;53.160;6.990;2023-06-22T13:11:45;25.10;99.90
52621;DHT22;38515;53.160;6.990;2023-06-22T13:14:11;25.10;99.90
52621;DHT22;38515;53.160;6.990;2023-06-22T13:16:37;25.10;99.90
52621;DHT22;38515;53.160;6.990;2023-06-22T13:19:03;25.10;99.90
52621;DHT22;38515;53.160;6.990;2023-06-22T13:21:30;25.10;99.90
52621;DHT22;38515;53.160;6.990;2023-06-22T13:23:56;25.00;99.90
52621;DHT22;38515;53.160;6.990;2023-06-22T13:26:22;25.00;99.90
52621;DHT22;38515;53.160;6.990;2023-06-22T13:28:48;24.90;99.90
52621;DHT22;38515;53.160;6.990;2023-06-22T13:31:14;24.90;99.90
52621;DHT22;38515;53.160;6.990;2023-06-22T13:33:40;24.80;99.90
52621;DHT22;38515;53.160;6.990;2023-06-22T13:36:07;24.70;99.90
52621;DHT22;38515;53.160;6.990;2023-06-22T13:38:35;24.70;99.90
52621;DHT22;38515;53.160;6.990;2023-06-22T13:41:04;24.70;99.90
52621;DHT22;38515;53.160;6.990;2023-06-22T13:43:31;24.70;99.90
52621;DHT22;38515;53.160;6.990;2023-06-22T13:45:57;24.70;99.90
52621;DHT22;38515;53.160;6.990;2023-06-22T13:48:23;24.60;99.90
52621;DHT22;38515;53.160;6.990;2023-06-22T13:50:52;24.60;99.90
52621;DHT22;38515;53.160;6.990;2023-06-22T13:53:18;24.60;99.90
52621;DHT22;38515;53.160;6.990;2023-06-22T13:55:44;24.60;99.90
52621;DHT22;38515;53.160;6.990;2023-06-22T13:58:10;24.60;99.90
52621;DHT22;38515;53.160;6.990;2023-06-22T14:00:35;24.50;99.90
52621;DHT22;38515;53.160;6.990;2023-06-22T14:03:02;24.50;99.90
52621;DHT22;38515;53.160;6.990;2023-06-22T14:05:28;24.40;99.90
52621;DHT22;38515;53.160;6.990;2023-06-22T14:07:54;24.40;99.90
52621;DHT22;38515;53.160;6.990;2023-06-22T14:10:20;24.30;99.90
52621;DHT22;38515;53.160;6.990;2023-06-22T14:12:46;24.20;99.90
52621;DHT22;38515;53.160;6.990;2023-06-22T14:15:11;24.20;99.90
52621;DHT22;38515;53.160;6.990;2023-06-22T14:17:37;24.00;99.90
52621;DHT22;38515;53.160;6.990;2023-06-22T14:20:04;24.00;99.90
52621;DHT22;38515;53.160;6.990;2023-06-22T14:22:31;23.90;99.90
52621;DHT22;38515;53.160;6.990;2023-06-22T14:24:57;23.80;99.90
52621;DHT22;38515;53.160;6.990;2023-06-22T14:27:24;23.70;99.90
52621;DHT22;38515;53.160;6.990;2023-06-22T14:29:50;23.60;99.90
52621;DHT22;38515;53.160;6.990;2023-06-22T14:32:16;23.60;99.90
52621;DHT22;38515;53.160;6.990;2023-06-22T14:34:42;23.50;99.90
52621;DHT22;38515;53.160;6.990;2023-06-22T14:37:09;23.50;99.90
52621;DHT22;38515;53.160;6.990;2023-06-22T14:39:36;23.50;99.90
52621;DHT22;38515;53.160;6.990;2023-06-22T14:42:02;23.40;99.90
52621;DHT22;38515;53.160;6.990;2023-06-22T14:44:29;23.40;99.90
52621;DHT22;38515;53.160;6.990;2023-06-22T14:46:58;23.30;99.90
52621;DHT22;38515;53.160;6.990;2023-06-22T14:49:24;23.30;99.90
52621;DHT22;38515;53.160;6.990;2023-06-22T14:51:50;23.20;99.90
52621;DHT22;38515;53.160;6.990;2023-06-22T14:54:16;23.20;99.90
52621;DHT22;38515;53.160;6.990;2023-06-22T14:56:42;23.20;99.90
52621;DHT22;38515;53.160;6.990;2023-06-22T14:59:09;23.10;99.90
52621;DHT22;38515;53.160;6.990;2023-06-22T15:01:35;23.20;99.90
52621;DHT22;38515;53.160;6.990;2023-06-22T15:04:01;23.10;99.90
52621;DHT22;38515;53.160;6.990;2023-06-22T15:06:28;23.10;99.90
52621;DHT22;38515;53.160;6.990;2023-06-22T15:08:54;23.10;99.90
52621;DHT22;38515;53.160;6.990;2023-06-22T15:11:20;23.00;99.90
52621;DHT22;38515;53.160;6.990;2023-06-22T15:13:46;23.10;99.90
52621;DHT22;38515;53.160;6.990;2023-06-22T15:16:12;23.00;99.90
52621;DHT22;38515;53.160;6.990;2023-06-22T15:18:38;22.90;99.90
52621;DHT22;38515;53.160;6.990;2023-06-22T15:21:08;22.90;99.90
52621;DHT22;38515;53.160;6.990;2023-06-22T15:23:34;22.80;99.90
52621;DHT22;38515;53.160;6.990;2023-06-22T15:26:06;22.70;99.90
52621;DHT22;38515;53.160;6.990;2023-06-22T15:28:32;22.70;99.90
52621;DHT22;38515;53.160;6.990;2023-06-22T15:30:58;22.60;99.90
52621;DHT22;38515;53.160;6.990;2023-06-22T15:33:25;22.50;99.90